Latest Weather Observations for Wilcannia Airport

IDN60801

Issued at 2:13 pm EDT Thursday 23 January 2020 (issued every 10 minutes, with the page automatically refreshed every 10 minutes)

About weather observations | Map of weather stations | Latest weather observations for NSW | Other Formats
Station Details ID: 046012 Name: WILCANNIA AERODROME AWS Lat: -31.52 Lon: 143.38 Height: 94.3 m
Data from the previous 72 hours. | See also: Recent months at Wilcannia Airport
Date/Time
EDT
Temp
°C
App
Temp
°C
Dew
Point
°C
Rel
Hum
%
Delta-T
°C
Wind Press
QNH
hPa
Press
MSL
hPa
Rain since
9am
mm
Dir  Spd
km/h
Gust
km/h
Spd
kts
Gust
kts
23/02:00pm 34.2 30.1 8.8 21 14.5 W 20 30 11 16 1003.1 1002.4 0.0
23/01:30pm 33.0 29.6 9.1 23 13.6 W 17 30 9 16 1003.4 1002.7 0.0
23/01:00pm 32.0 28.9 8.9 24 13.0 W 15 24 8 13 1003.7 1003.0 0.0
23/12:30pm 31.1 28.4 8.8 25 12.5 WSW 13 30 7 16 1004.0 1003.3 0.0
23/12:00pm 29.3 26.5 8.4 27 11.6 WSW 13 26 7 14 1004.2 1003.5 0.0
23/11:30am 28.3 25.4 8.1 28 11.0 SSW 13 22 7 12 1004.3 1003.6 0.0
23/11:00am 28.6 24.7 8.8 29 11.0 SSW 19 30 10 16 1004.2 1003.5 0.0
23/10:30am 26.8 21.9 8.3 31 10.0 SW 24 32 13 17 1004.6 1004.0 0.0
23/10:00am 26.0 20.3 8.5 33 9.5 SW 28 37 15 20 1004.5 1003.9 0.0
23/09:30am 25.7 19.9 9.5 36 8.9 SSW 30 37 16 20 1004.2 1003.5 0.0
23/09:00am 25.4 19.4 10.1 38 8.5 SSW 32 41 17 22 1003.9 1003.2 0.0
23/08:30am 25.1 19.5 10.2 39 8.3 SSW 30 39 16 21 1003.2 1002.5 0.0
23/08:00am 25.0 19.1 11.2 42 7.8 SSW 33 43 18 23 1002.1 1001.4 0.0
23/07:30am 25.3 19.6 11.1 41 8.0 SSW 32 44 17 24 1001.3 1000.7 0.0
23/07:00am 27.3 22.4 10.1 34 9.7 SW 26 39 14 21 1000.3 999.7 0.0
23/06:51am 28.1 22.5 8.9 30 10.6 WSW 28 39 15 21 1000.0 999.4 0.0
23/06:30am 33.1 25.7 2.1 14 15.7 NNW 30 37 16 20 999.0 998.4 0.0
23/06:00am 33.4 26.7 1.3 13 16.2 NNW 26 35 14 19 998.9 998.3 0.0
23/05:30am 33.9 26.5 1.6 13 16.3 NNW 30 41 16 22 998.8 998.2 0.0
23/05:00am 34.4 26.5 0.9 12 16.9 NNW 32 41 17 22 998.6 998.0 0.0
23/04:30am 33.6 27.7 -0.9 11 16.7 N 20 26 11 14 998.2 997.6 0.0
23/04:00am 33.7 27.2 -2.1 10 17.1 N 22 30 12 16 998.2 997.6 0.0
23/03:30am 33.9 27.1 -2.0 10 17.1 N 24 33 13 18 998.4 997.8 0.0
23/03:00am 34.0 26.3 -3.3 9 17.5 N 28 37 15 20 998.7 998.1 0.0
23/02:30am 34.3 26.4 -4.6 8 17.8 N 28 39 15 21 999.0 998.4 0.0
23/02:00am 34.1 27.5 -3.2 9 17.5 N 22 30 12 16 999.4 998.8 0.0
23/01:30am 34.0 27.0 -3.3 9 17.4 N 24 32 13 17 999.5 998.9 0.0
23/01:00am 34.2 27.6 -3.2 9 17.6 N 22 28 12 15 999.8 999.2 0.0
23/12:30am 34.2 27.4 -1.7 10 17.2 N 24 35 13 19 999.8 999.2 0.0
23/12:00am 34.4 28.0 -1.6 10 17.4 N 22 30 12 16 1000.0 999.4 0.0
 
Date/Time
EDT
Temp
°C
App
Temp
°C
Dew
Point
°C
Rel
Hum
%
Delta-T
°C
Wind Press
QNH
hPa
Press
MSL
hPa
Rain since
9am
mm
Dir  Spd
km/h
Gust
km/h
Spd
kts
Gust
kts
22/11:30pm 34.4 28.6 -1.6 10 17.3 N 19 28 10 15 1000.1 999.5 0.0
22/11:00pm 34.4 29.1 -0.3 11 17.1 N 17 20 9 11 1000.2 999.6 0.0
22/10:30pm 35.4 30.3 0.5 11 17.5 N 17 24 9 13 1000.1 999.5 0.0
22/10:00pm 35.7 30.6 0.7 11 17.7 N 17 20 9 11 1000.1 999.5 0.0
22/09:30pm 36.5 30.3 0.0 10 18.3 N 22 28 12 15 999.9 999.3 0.0
22/09:00pm 36.9 30.8 0.3 10 18.5 N 22 30 12 16 999.6 999.0 0.0
22/08:30pm 37.7 30.7 -0.6 9 19.1 NNW 26 33 14 18 999.7 999.1 0.0
22/08:00pm 38.2 31.6 -0.2 9 19.5 NNW 24 37 13 20 999.6 999.0 0.0
22/07:30pm 39.2 30.8 -1.1 8 20.2 NNW 33 48 18 26 999.5 998.9 0.0
22/07:00pm 39.6 30.9 -0.8 8 20.5 NNW 35 46 19 25 999.4 998.8 0.0
22/06:30pm 40.0 32.2 -0.5 8 20.5 NNW 30 44 16 24 999.6 999.0 0.0
22/06:16pm 40.4 33.1 -0.2 8 20.7 NNW 28 46 15 25 999.8 999.2 0.0
22/06:00pm 40.3 32.0 -0.3 8 20.8 NNW 33 50 18 27 999.9 999.3 0.0
22/05:39pm 40.9 33.2 0.2 8 21.0 NNW 30 50 16 27 1000.0 999.4 0.0
22/05:30pm 40.3 32.2 -0.3 8 20.7 NNW 32 46 17 25 1000.2 999.6 0.0
22/05:00pm 40.5 32.8 -0.1 8 20.9 NNW 30 50 16 27 1000.7 1000.1 0.0
22/04:39pm 40.4 32.3 -0.2 8 20.7 NW 32 50 17 27 1001.1 1000.5 0.0
22/04:30pm 41.0 33.4 0.3 8 21.0 NNW 30 43 16 23 1001.2 1000.6 0.0
22/04:15pm 40.3 32.2 -0.3 8 20.7 NNW 32 50 17 27 1001.5 1000.9 0.0
22/04:00pm 40.9 33.2 0.2 8 21.1 NNW 30 44 16 24 1001.9 1001.2 0.0
22/03:36pm 40.1 32.4 -0.4 8 20.6 NNW 30 48 16 26 1002.3 1001.6 0.0
22/03:30pm 40.6 32.0 0.0 8 20.8 NNW 35 52 19 28 1002.4 1001.7 0.0
22/03:08pm 39.8 32.4 -0.6 8 20.4 NNW 28 46 15 25 1002.8 1002.1 0.0
22/03:00pm 40.3 32.2 -0.3 8 20.8 NNW 32 46 17 25 1003.1 1002.4 0.0
22/02:43pm 40.0 31.9 -0.5 8 20.5 NW 32 50 17 27 1003.3 1002.6 0.0
22/02:30pm 39.8 32.0 -0.6 8 20.4 NNW 30 46 16 25 1003.6 1002.9 0.0
22/02:00pm 39.4 31.0 -0.9 8 20.3 NNW 33 54 18 29 1004.1 1003.4 0.0
22/01:34pm 38.5 30.2 -1.6 8 19.8 NNW 32 50 17 27 1004.6 1004.0 0.0
22/01:30pm 38.2 29.9 -0.2 9 19.4 NNW 33 44 18 24 1004.7 1004.1 0.0
22/01:06pm 38.4 30.1 0.0 9 19.4 NNW 33 52 18 28 1005.2 1004.6 0.0
22/01:00pm 38.1 29.4 -0.3 9 19.4 NNW 35 52 19 28 1005.2 1004.6 0.0
22/12:32pm 37.2 29.8 1.8 11 18.3 NNW 30 48 16 26 1005.7 1005.1 0.0
22/12:30pm 37.3 29.5 1.9 11 18.3 NNW 32 48 17 26 1005.7 1005.1 0.0
22/12:00pm 36.2 28.5 2.3 12 17.6 N 32 48 17 26 1006.2 1005.6 0.0
22/11:37am 35.6 28.4 3.0 13 17.0 N 30 48 16 26 1006.4 1005.8 0.0
22/11:30am 35.2 28.3 2.6 13 16.9 N 28 41 15 22 1006.7 1006.1 0.0
22/11:00am 34.1 27.2 2.8 14 16.2 N 28 41 15 22 1007.0 1006.4 0.0
22/10:30am 33.6 27.6 3.4 15 15.7 NNE 24 33 13 18 1007.2 1006.6 0.0
22/10:00am 32.5 26.5 3.5 16 15.0 NNE 24 33 13 18 1007.4 1006.8 0.0
22/09:30am 31.4 26.6 5.8 20 13.7 NNE 20 26 11 14 1007.5 1006.9 0.0
22/09:00am 29.4 24.6 5.5 22 12.6 NE 20 28 11 15 1007.3 1006.7 0.0
22/08:30am 27.5 23.5 5.1 24 11.5 NE 15 19 8 10 1007.6 1007.0 0.0
22/08:00am 24.3 21.2 5.6 30 9.6 NE 11 13 6 7 1007.6 1007.0 0.0
22/07:30am 21.1 18.1 5.9 37 7.6 NE 11 13 6 7 1007.4 1006.8 0.0
22/07:00am 19.1 15.9 6.9 45 6.2 NNE 13 15 7 8 1007.3 1006.7 0.0
22/06:30am 18.8 16.2 6.3 44 6.2 NE 9 11 5 6 1007.2 1006.6 0.0
22/06:00am 20.9 17.7 4.9 35 7.9 NNE 11 15 6 8 1007.1 1006.5 0.0
22/05:30am 21.5 18.8 5.4 35 8.0 NNW 9 11 5 6 1007.0 1006.4 0.0
22/05:00am 21.2 18.4 5.1 35 8.0 NW 9 11 5 6 1006.9 1006.3 0.0
22/04:30am 21.4 18.2 5.3 35 8.0 NW 11 13 6 7 1006.8 1006.2 0.0
22/04:00am 21.5 18.9 6.2 37 7.8 NW 9 11 5 6 1006.7 1006.1 0.0
22/03:30am 21.2 18.8 7.1 40 7.2 NW 9 9 5 5 1006.8 1006.2 0.0
22/03:00am 20.7 17.8 6.6 40 7.2 NNW 11 13 6 7 1006.7 1006.1 0.0
22/02:30am 21.1 20.4 7.0 40 7.2 CALM 0 0 0 0 1006.8 1006.2 0.0
22/02:00am 23.0 20.1 6.3 34 8.6 NNW 11 13 6 7 1007.4 1006.8 0.0
22/01:30am 24.1 21.3 6.8 33 9.0 N 11 13 6 7 1007.6 1007.0 0.0
22/01:00am 24.8 22.7 6.5 31 9.5 NW 7 11 4 6 1007.9 1007.3 0.0
22/12:30am 25.5 22.6 6.7 30 9.8 WNW 11 15 6 8 1008.1 1007.5 0.0
22/12:00am 23.6 21.1 6.4 33 8.9 NNE 9 9 5 5 1008.0 1007.4 0.0
 
Date/Time
EDT
Temp
°C
App
Temp
°C
Dew
Point
°C
Rel
Hum
%
Delta-T
°C
Wind Press
QNH
hPa
Press
MSL
hPa
Rain since
9am
mm
Dir  Spd
km/h
Gust
km/h
Spd
kts
Gust
kts
21/11:30pm 24.4 21.4 6.2 31 9.4 ENE 11 13 6 7 1007.8 1007.2 0.0
21/11:00pm 24.9 21.8 7.1 32 9.4 NE 13 13 7 7 1007.8 1007.2 0.0
21/10:30pm 25.6 23.2 7.2 31 9.7 NE 9 11 5 6 1007.8 1007.2 0.0
21/10:00pm 26.5 23.6 6.5 28 10.5 NNE 11 11 6 6 1007.6 1007.0 0.0
21/09:30pm 27.4 24.4 6.2 26 11.1 NNE 11 11 6 6 1007.4 1006.8 0.0
21/09:00pm 29.3 26.8 6.7 24 12.1 N 9 13 5 7 1007.3 1006.7 0.0
21/08:30pm 30.3 27.7 6.2 22 12.9 N 9 17 5 9 1007.2 1006.6 0.0
21/08:00pm 31.0 29.1 7.5 23 12.9 ENE 7 9 4 5 1007.0 1006.4 0.0
21/07:30pm 31.6 29.3 7.3 22 13.3 N 9 15 5 8 1006.9 1006.3 0.0
21/07:00pm 31.8 29.9 7.5 22 13.4 NW 7 11 4 6 1006.8 1006.2 0.0
21/06:30pm 31.9 28.5 7.5 22 13.4 NNW 15 24 8 13 1006.9 1006.3 0.0
21/06:00pm 32.2 29.6 7.8 22 13.5 W 11 20 6 11 1006.9 1006.3 0.0
21/05:30pm 32.1 29.5 7.7 22 13.5 SW 11 20 6 11 1007.2 1006.6 0.0
21/05:00pm 31.9 29.6 7.5 22 13.4 SW 9 19 5 10 1007.5 1006.9 0.0
21/04:30pm 32.1 30.0 8.4 23 13.2 WNW 9 15 5 8 1007.9 1007.3 0.0
21/04:00pm 32.1 28.6 7.0 21 13.7 NW 15 26 8 14 1008.4 1007.8 0.0
21/03:30pm 30.3 27.3 7.5 24 12.4 W 13 22 7 12 1008.8 1008.2 0.0
21/03:00pm 31.0 28.2 8.7 25 12.5 WNW 13 19 7 10 1009.2 1008.6 0.0
21/02:30pm 31.0 28.9 9.8 27 12.0 N 11 20 6 11 1009.5 1008.9 0.0
21/02:00pm 29.9 27.5 9.9 29 11.3 SSW 13 20 7 11 1010.2 1009.6 0.0
21/01:30pm 29.4 27.9 10.5 31 10.8 SW 9 17 5 9 1010.6 1010.0 0.0
21/01:00pm 28.1 26.7 10.8 34 9.9 NNW 9 17 5 9 1011.0 1010.4 0.0
21/12:30pm 27.6 25.8 10.8 35 9.5 S 11 17 6 9 1011.4 1010.8 0.0
21/12:00pm 27.0 26.3 11.9 39 8.7 SSW 7 15 4 8 1012.0 1011.4 0.0
21/11:30am 25.9 24.8 12.0 42 8.0 SSE 9 15 5 8 1012.0 1011.4 0.0
21/11:00am 25.4 25.0 12.9 45 7.3 SSE 7 11 4 6 1012.3 1011.7 0.0
21/10:30am 24.2 23.0 12.8 49 6.6 SSW 11 19 6 10 1012.3 1011.7 0.0
21/10:00am 23.9 22.1 13.4 51 6.1 S 15 24 8 13 1012.3 1011.7 0.0
21/09:30am 22.9 20.5 12.8 53 5.8 SSW 17 26 9 14 1012.4 1011.8 0.0
21/09:00am 21.8 19.3 12.4 55 5.3 SSW 17 28 9 15 1012.2 1011.6 0.0
21/08:30am 21.2 18.2 11.8 55 5.3 SSW 19 24 10 13 1011.7 1011.1 -
21/08:00am 20.3 17.5 11.5 57 4.9 SW 17 20 9 11 1011.5 1010.9 -
21/07:30am 19.0 17.4 11.6 62 4.1 SW 11 13 6 7 1011.1 1010.5 -
21/07:00am 17.9 16.2 11.2 65 3.7 SW 11 13 6 7 1010.4 1009.8 -
21/06:30am 17.8 16.1 11.1 65 3.6 SW 11 13 6 7 1010.0 1009.4 -
21/06:00am 18.3 17.0 11.1 63 3.9 WSW 9 11 5 6 1009.6 1009.0 -
21/05:30am 18.8 17.2 11.4 62 4.1 SW 11 15 6 8 1009.4 1008.8 -
21/05:00am 19.1 17.5 11.7 62 4.1 WSW 11 15 6 8 1009.0 1008.4 -
21/04:30am 19.4 17.9 11.9 62 4.2 WSW 11 13 6 7 1008.8 1008.2 -
21/04:00am 19.4 17.8 11.4 60 4.4 WSW 11 17 6 9 1008.6 1008.0 -
21/03:30am 18.9 17.9 11.0 60 4.3 W 7 9 4 5 1008.4 1007.8 -
21/03:00am 19.3 17.9 10.8 58 4.6 WNW 9 11 5 6 1008.5 1007.9 -
21/02:30am 19.7 18.2 10.7 56 4.9 W 9 11 5 6 1008.5 1007.9 -
21/02:00am 20.4 19.1 11.3 56 5.0 SW 9 11 5 6 1008.5 1007.9 -
21/01:30am 20.8 19.5 11.2 54 5.3 SW 9 11 5 6 1008.6 1008.0 -
21/01:00am 21.7 - 11.4 52 5.8 - - - - - 1008.8 1008.2 -
21/12:00am 23.2 20.5 11.6 48 6.6 S 17 24 9 13 1008.9 1008.3 -
 
Date/Time
EDT
Temp
°C
App
Temp
°C
Dew
Point
°C
Rel
Hum
%
Delta-T
°C
Wind Press
QNH
hPa
Press
MSL
hPa
Rain since
9am
mm
Dir  Spd
km/h
Gust
km/h
Spd
kts
Gust
kts
20/11:30pm 23.4 20.7 10.5 44 7.1 S 15 20 8 11 1008.8 1008.2 -
20/11:00pm 23.7 20.0 9.3 40 7.8 SSW 19 28 10 15 1008.7 1008.1 -
20/10:30pm 22.4 20.3 6.6 36 8.1 SW 7 9 4 5 1008.3 1007.7 -
20/10:00pm 23.2 21.1 6.5 34 8.6 SSW 7 7 4 4 1007.9 1007.3 -
20/09:30pm 24.2 21.6 6.0 31 9.3 SSW 9 11 5 6 1007.5 1006.9 -
20/09:00pm 25.8 22.0 5.9 28 10.3 SW 15 20 8 11 1007.0 1006.4 0.0
20/08:30pm 26.5 22.1 6.5 28 10.5 SW 19 24 10 13 1006.7 1006.1 -
20/08:00pm 27.5 23.0 6.3 26 11.2 SW 19 32 10 17 1006.3 1005.7 -
20/07:30pm 28.0 22.6 6.2 25 11.5 SW 24 33 13 18 1006.0 1005.4 -
20/07:00pm 28.2 22.5 6.9 26 11.4 SW 26 35 14 19 1005.7 1005.1 -
20/06:30pm 28.7 22.6 6.7 25 11.7 SW 28 41 15 22 1005.4 1004.8 -
20/06:00pm 28.9 24.0 6.9 25 11.8 W 22 32 12 17 1005.1 1004.5 -
20/05:30pm 29.2 23.6 7.2 25 11.9 WSW 26 35 14 19 1005.1 1004.5 -
20/05:00pm 28.9 24.1 7.5 26 11.6 SW 22 33 12 18 1005.2 1004.6 -
20/04:30pm 29.0 24.1 7.0 25 11.8 SW 22 37 12 20 1005.3 1004.7 -
20/04:01pm 28.8 22.0 6.8 25 11.8 W 32 54 17 29 1005.2 1004.6 -
20/04:00pm 28.3 21.4 6.4 25 11.6 W 32 44 17 24 1005.3 1004.7 -
20/03:30pm 28.4 21.5 4.6 22 12.2 WSW 30 65 16 35 1005.5 1004.9 -
20/03:22pm 28.6 22.3 5.5 23 12.1 WSW 28 65 15 35 1005.5 1004.9 -
20/03:21pm 28.8 22.9 5.6 23 12.2 WSW 26 65 14 35 1005.3 1004.7 -
20/03:00pm 29.0 22.9 6.4 24 12.1 WSW 28 41 15 22 1005.6 1005.0 -
20/02:30pm 27.7 21.4 5.9 25 11.4 W 28 44 15 24 1005.6 1005.0 -

Other formats

Comma delimited format used in spreadsheet applications
http://www.bom.gov.au/fwo/IDN60801/IDN60801.95695.axf

JavaScript Object Notation format (JSON) in row-major order
http://www.bom.gov.au/fwo/IDN60801/IDN60801.95695.json

Data quality

Most of these data are generated automatically and are frequently updated. Quality checks on data are not normally performed. It is possible for incorrect values to appear. Refer to information at About Latest Weather Observations and please check the disclaimer before using these data.